Bookmark and Share
Track history (hours):
 

Theresa L. Wood

More information available from US FCC via Universal Licensing System and Coast Guard Vessel Documentation Center.

Last reported at 2013-Apr-08 16:13 UTC. Time now 2014-Apr-24 09:04 UTC.
Position N 39°09' W 090°43'.
Warning: this ship's position is years out of date!

MMSI: 366971680.

NotesDate/timePositionNaut miles runAvg speedWind from/ knotsBaromVisibWave heightAir tempDewpointWater temp
2013-Apr-08 16:13N 39°09' W 090°43'7 4.3
2013-Apr-08 14:34N 39°02' W 090°42'2 1.9
2013-Apr-08 13:34N 39°00' W 090°41'1 0.6
2013-Apr-08 12:33N 38°60' W 090°41'5 5.0
2013-Apr-08 11:33N 38°55' W 090°39'5 4.5
2013-Apr-08 10:34N 38°52' W 090°34'5 4.7
2013-Apr-08 09:34N 38°56' W 090°30'5 4.8
2013-Apr-08 08:34N 38°58' W 090°25'6 5.8
2013-Apr-08 07:34N 38°55' W 090°18'6 5.5
2013-Apr-08 06:33N 38°53' W 090°11'3 1.7
2013-Apr-08 04:34N 38°51' W 090°08'0 0.0
2013-Apr-08 03:33N 38°51' W 090°08'1 0.7
2013-Apr-08 02:34N 38°51' W 090°07'4 4.1
2013-Apr-08 01:33N 38°47' W 090°08'4 4.0
2013-Apr-08 00:34N 38°43' W 090°10'2 2.0
2013-Apr-07 23:31N 38°42' W 090°11'0 0.0
2013-Apr-07 22:29N 38°42' W 090°11'0 0.3
2013-Apr-07 21:34N 38°41' W 090°11'3 3.2
2013-Apr-07 20:32N 38°38' W 090°11'0 0.0
2013-Apr-07 19:21N 38°38' W 090°11'2 1.6
2013-Apr-07 18:14N 38°36' W 090°11'0 0.0
2013-Apr-07 17:31N 38°36' W 090°11'0 0.0
2013-Apr-07 16:33N 38°36' W 090°11'0 0.0
2013-Apr-07 15:33N 38°36' W 090°11'0 0.4
2013-Apr-07 14:28N 38°36' W 090°12'0 0.1
2013-Apr-07 13:33N 38°36' W 090°11'0 0.0
2013-Apr-07 12:33N 38°36' W 090°11'  

Dump ship's entire track history

sailing weather and tide predictions

Theresa L. Wood — WDB9203 — position and weather